sensor_id;sensor_type;location;lat;lon;timestamp;pressure;altitude;pressure_sealevel;temperature;humidity
4143;BME280;2085;51.052;6.958;2022-09-09T00:00:18;100514.00;;;18.02;59.99
4143;BME280;2085;51.052;6.958;2022-09-09T00:02:50;100509.34;;;17.95;60.10
4143;BME280;2085;51.052;6.958;2022-09-09T00:05:29;100504.91;;;17.84;60.18
4143;BME280;2085;51.052;6.958;2022-09-09T00:07:59;100500.22;;;17.76;60.28
4143;BME280;2085;51.052;6.958;2022-09-09T00:10:30;100497.19;;;17.70;60.51
4143;BME280;2085;51.052;6.958;2022-09-09T00:13:02;100490.72;;;17.63;60.38
4143;BME280;2085;51.052;6.958;2022-09-09T00:15:36;100485.66;;;17.60;60.74
4143;BME280;2085;51.052;6.958;2022-09-09T00:18:11;100477.03;;;17.56;60.69
4143;BME280;2085;51.052;6.958;2022-09-09T00:20:47;100475.34;;;17.55;60.62
4143;BME280;2085;51.052;6.958;2022-09-09T00:23:20;100468.72;;;17.50;60.82
4143;BME280;2085;51.052;6.958;2022-09-09T00:25:57;100481.28;;;17.48;60.81
4143;BME280;2085;51.052;6.958;2022-09-09T00:28:27;100479.84;;;17.44;60.88
4143;BME280;2085;51.052;6.958;2022-09-09T00:31:00;100478.88;;;17.45;60.94
4143;BME280;2085;51.052;6.958;2022-09-09T00:33:30;100475.25;;;17.46;60.85
4143;BME280;2085;51.052;6.958;2022-09-09T00:36:00;100482.97;;;17.49;61.02
4143;BME280;2085;51.052;6.958;2022-09-09T00:38:33;100483.56;;;17.52;61.01
4143;BME280;2085;51.052;6.958;2022-09-09T00:41:05;100488.44;;;17.58;61.01
4143;BME280;2085;51.052;6.958;2022-09-09T00:43:36;100476.66;;;17.61;60.92
4143;BME280;2085;51.052;6.958;2022-09-09T00:49:07;100480.66;;;17.66;60.85
4143;BME280;2085;51.052;6.958;2022-09-09T00:51:46;100485.59;;;17.71;60.88
4143;BME280;2085;51.052;6.958;2022-09-09T00:54:28;100495.28;;;17.72;61.00
4143;BME280;2085;51.052;6.958;2022-09-09T00:57:07;100485.47;;;17.72;60.77
4143;BME280;2085;51.052;6.958;2022-09-09T00:59:46;100489.00;;;17.73;60.73
4143;BME280;2085;51.052;6.958;2022-09-09T01:02:18;100483.78;;;17.71;60.90
4143;BME280;2085;51.052;6.958;2022-09-09T01:04:48;100482.09;;;17.70;60.85
4143;BME280;2085;51.052;6.958;2022-09-09T01:07:18;100477.88;;;17.68;61.08
4143;BME280;2085;51.052;6.958;2022-09-09T01:09:55;100473.78;;;17.64;60.83
4143;BME280;2085;51.052;6.958;2022-09-09T01:12:30;100483.09;;;17.58;60.96
4143;BME280;2085;51.052;6.958;2022-09-09T01:15:07;100478.13;;;17.54;61.12
4143;BME280;2085;51.052;6.958;2022-09-09T01:17:42;100481.16;;;17.49;61.29
4143;BME280;2085;51.052;6.958;2022-09-09T01:20:13;100495.59;;;17.47;61.18
4143;BME280;2085;51.052;6.958;2022-09-09T01:22:53;100494.59;;;17.48;61.46
4143;BME280;2085;51.052;6.958;2022-09-09T01:25:30;100488.56;;;17.46;61.39
4143;BME280;2085;51.052;6.958;2022-09-09T01:28:02;100480.81;;;17.42;61.24
4143;BME280;2085;51.052;6.958;2022-09-09T01:30:30;100488.09;;;17.40;61.35
4143;BME280;2085;51.052;6.958;2022-09-09T01:32:58;100485.94;;;17.34;61.38
4143;BME280;2085;51.052;6.958;2022-09-09T01:35:39;100483.06;;;17.26;61.57
4143;BME280;2085;51.052;6.958;2022-09-09T01:38:09;100482.09;;;17.16;61.43
4143;BME280;2085;51.052;6.958;2022-09-09T01:40:36;100484.28;;;17.11;61.62
4143;BME280;2085;51.052;6.958;2022-09-09T01:43:04;100484.66;;;17.07;61.74
4143;BME280;2085;51.052;6.958;2022-09-09T01:45:32;100481.03;;;17.08;61.70
4143;BME280;2085;51.052;6.958;2022-09-09T01:47:59;100479.81;;;17.12;61.90
4143;BME280;2085;51.052;6.958;2022-09-09T01:50:28;100478.47;;;17.17;61.78
4143;BME280;2085;51.052;6.958;2022-09-09T01:52:58;100482.47;;;17.23;61.75
4143;BME280;2085;51.052;6.958;2022-09-09T01:55:29;100488.25;;;17.28;61.68
4143;BME280;2085;51.052;6.958;2022-09-09T01:58:11;100487.03;;;17.32;61.87
4143;BME280;2085;51.052;6.958;2022-09-09T02:00:48;100489.22;;;17.38;61.60
4143;BME280;2085;51.052;6.958;2022-09-09T02:03:21;100489.78;;;17.42;61.78
4143;BME280;2085;51.052;6.958;2022-09-09T02:05:55;100489.28;;;17.48;61.55
4143;BME280;2085;51.052;6.958;2022-09-09T02:08:29;100487.22;;;17.51;61.69
4143;BME280;2085;51.052;6.958;2022-09-09T02:11:03;100489.63;;;17.54;61.47
4143;BME280;2085;51.052;6.958;2022-09-09T02:13:35;100492.88;;;17.58;61.57
4143;BME280;2085;51.052;6.958;2022-09-09T02:16:05;100483.84;;;17.60;61.49
4143;BME280;2085;51.052;6.958;2022-09-09T02:18:37;100490.72;;;17.63;61.44
4143;BME280;2085;51.052;6.958;2022-09-09T02:21:06;100480.06;;;17.63;61.62
4143;BME280;2085;51.052;6.958;2022-09-09T02:23:34;100473.63;;;17.65;61.63
4143;BME280;2085;51.052;6.958;2022-09-09T02:26:02;100473.50;;;17.67;61.61
4143;BME280;2085;51.052;6.958;2022-09-09T02:28:33;100474.38;;;17.67;61.51
4143;BME280;2085;51.052;6.958;2022-09-09T02:31:01;100480.66;;;17.66;61.54
4143;BME280;2085;51.052;6.958;2022-09-09T02:33:32;100478.94;;;17.65;61.75
4143;BME280;2085;51.052;6.958;2022-09-09T02:36:01;100478.13;;;17.65;61.55
4143;BME280;2085;51.052;6.958;2022-09-09T02:38:32;100475.47;;;17.65;61.44
4143;BME280;2085;51.052;6.958;2022-09-09T02:41:00;100480.81;;;17.65;61.65
4143;BME280;2085;51.052;6.958;2022-09-09T02:43:31;100482.47;;;17.66;61.57
4143;BME280;2085;51.052;6.958;2022-09-09T02:46:04;100471.69;;;17.67;61.68
4143;BME280;2085;51.052;6.958;2022-09-09T02:48:38;100467.22;;;17.68;61.50
4143;BME280;2085;51.052;6.958;2022-09-09T02:51:14;100474.25;;;17.69;61.58
4143;BME280;2085;51.052;6.958;2022-09-09T02:53:52;100480.41;;;17.69;61.68
4143;BME280;2085;51.052;6.958;2022-09-09T02:56:25;100475.09;;;17.69;61.87
4143;BME280;2085;51.052;6.958;2022-09-09T02:58:54;100474.25;;;17.69;61.47
4143;BME280;2085;51.052;6.958;2022-09-09T03:01:22;100477.88;;;17.68;61.60
4143;BME280;2085;51.052;6.958;2022-09-09T03:03:49;100476.19;;;17.67;61.63
4143;BME280;2085;51.052;6.958;2022-09-09T03:06:15;100470.97;;;17.65;61.63
4143;BME280;2085;51.052;6.958;2022-09-09T03:08:42;100478.13;;;17.65;61.68
4143;BME280;2085;51.052;6.958;2022-09-09T03:11:08;100471.13;;;17.64;61.88
4143;BME280;2085;51.052;6.958;2022-09-09T03:13:35;100470.28;;;17.63;61.79
4143;BME280;2085;51.052;6.958;2022-09-09T03:16:03;100464.09;;;17.63;61.67
4143;BME280;2085;51.052;6.958;2022-09-09T03:18:32;100469.53;;;17.61;61.74
4143;BME280;2085;51.052;6.958;2022-09-09T03:20:59;100462.66;;;17.59;61.64
4143;BME280;2085;51.052;6.958;2022-09-09T03:23:26;100461.91;;;17.57;61.79
4143;BME280;2085;51.052;6.958;2022-09-09T03:25:53;100460.22;;;17.56;62.02
4143;BME280;2085;51.052;6.958;2022-09-09T03:28:22;100462.06;;;17.55;61.97
4143;BME280;2085;51.052;6.958;2022-09-09T03:30:58;100459.38;;;17.55;61.88
4143;BME280;2085;51.052;6.958;2022-09-09T03:33:24;100460.34;;;17.54;62.05
4143;BME280;2085;51.052;6.958;2022-09-09T03:35:52;100462.16;;;17.54;61.93
4143;BME280;2085;51.052;6.958;2022-09-09T03:38:22;100464.81;;;17.54;61.93
4143;BME280;2085;51.052;6.958;2022-09-09T03:40:50;100469.28;;;17.53;61.77
4143;BME280;2085;51.052;6.958;2022-09-09T03:43:17;100470.16;;;17.54;62.00
4143;BME280;2085;51.052;6.958;2022-09-09T03:45:45;100470.88;;;17.56;62.03
4143;BME280;2085;51.052;6.958;2022-09-09T03:48:12;100467.22;;;17.57;61.89
4143;BME280;2085;51.052;6.958;2022-09-09T03:50:38;100469.81;;;17.58;61.84
4143;BME280;2085;51.052;6.958;2022-09-09T03:53:06;100467.88;;;17.60;62.02
4143;BME280;2085;51.052;6.958;2022-09-09T03:55:33;100467.03;;;17.60;61.80
4143;BME280;2085;51.052;6.958;2022-09-09T03:58:00;100464.22;;;17.61;61.76
4143;BME280;2085;51.052;6.958;2022-09-09T04:00:26;100469.69;;;17.60;61.88
4143;BME280;2085;51.052;6.958;2022-09-09T04:02:54;100469.69;;;17.60;61.96
4143;BME280;2085;51.052;6.958;2022-09-09T04:05:20;100468.69;;;17.61;62.06
4143;BME280;2085;51.052;6.958;2022-09-09T04:07:47;100464.34;;;17.60;61.75
4143;BME280;2085;51.052;6.958;2022-09-09T04:10:15;100465.22;;;17.60;62.10
4143;BME280;2085;51.052;6.958;2022-09-09T04:12:42;100465.22;;;17.60;61.88
4143;BME280;2085;51.052;6.958;2022-09-09T04:15:09;100471.34;;;17.61;61.99
4143;BME280;2085;51.052;6.958;2022-09-09T04:17:36;100466.75;;;17.63;61.94
4143;BME280;2085;51.052;6.958;2022-09-09T04:20:02;100461.44;;;17.63;62.02
4143;BME280;2085;51.052;6.958;2022-09-09T04:22:29;100470.16;;;17.65;61.97
4143;BME280;2085;51.052;6.958;2022-09-09T04:24:57;100464.09;;;17.63;61.87
4143;BME280;2085;51.052;6.958;2022-09-09T04:27:25;100459.63;;;17.63;62.12
4143;BME280;2085;51.052;6.958;2022-09-09T04:29:51;100463.25;;;17.62;62.05
4143;BME280;2085;51.052;6.958;2022-09-09T04:32:18;100457.94;;;17.62;61.95
4143;BME280;2085;51.052;6.958;2022-09-09T04:34:44;100460.69;;;17.61;61.75
4143;BME280;2085;51.052;6.958;2022-09-09T04:37:12;100464.34;;;17.60;62.10
4143;BME280;2085;51.052;6.958;2022-09-09T04:39:39;100468.84;;;17.59;62.34
4143;BME280;2085;51.052;6.958;2022-09-09T04:42:06;100471.50;;;17.59;62.03
4143;BME280;2085;51.052;6.958;2022-09-09T04:44:34;100465.31;;;17.59;61.91
4143;BME280;2085;51.052;6.958;2022-09-09T04:47:01;100468.06;;;17.57;62.16
4143;BME280;2085;51.052;6.958;2022-09-09T04:49:27;100472.53;;;17.57;62.11
4143;BME280;2085;51.052;6.958;2022-09-09T04:51:56;100469.03;;;17.56;62.04
4143;BME280;2085;51.052;6.958;2022-09-09T04:54:23;100473.53;;;17.56;62.13
4143;BME280;2085;51.052;6.958;2022-09-09T04:56:50;100471.84;;;17.55;62.10
4143;BME280;2085;51.052;6.958;2022-09-09T04:59:17;100477.16;;;17.55;62.13
4143;BME280;2085;51.052;6.958;2022-09-09T05:01:45;100476.31;;;17.54;61.98
4143;BME280;2085;51.052;6.958;2022-09-09T05:04:11;100472.81;;;17.54;62.17
4143;BME280;2085;51.052;6.958;2022-09-09T05:06:39;100473.66;;;17.54;62.07
4143;BME280;2085;51.052;6.958;2022-09-09T05:09:05;100473.53;;;17.56;62.15
4143;BME280;2085;51.052;6.958;2022-09-09T05:11:33;100469.88;;;17.57;62.27
4143;BME280;2085;51.052;6.958;2022-09-09T05:14:02;100467.13;;;17.58;62.29
4143;BME280;2085;51.052;6.958;2022-09-09T05:16:29;100469.69;;;17.60;62.09
4143;BME280;2085;51.052;6.958;2022-09-09T05:18:57;100470.53;;;17.60;62.27
4143;BME280;2085;51.052;6.958;2022-09-09T05:21:24;100469.41;;;17.63;62.15
4143;BME280;2085;51.052;6.958;2022-09-09T05:23:51;100470.28;;;17.63;62.13
4143;BME280;2085;51.052;6.958;2022-09-09T05:26:19;100459.50;;;17.65;62.08
4143;BME280;2085;51.052;6.958;2022-09-09T05:28:46;100457.66;;;17.65;62.02
4143;BME280;2085;51.052;6.958;2022-09-09T05:31:15;100458.50;;;17.66;62.09
4143;BME280;2085;51.052;6.958;2022-09-09T05:33:43;100464.69;;;17.66;62.08
4143;BME280;2085;51.052;6.958;2022-09-09T05:36:13;100469.16;;;17.66;62.14
4143;BME280;2085;51.052;6.958;2022-09-09T05:38:40;100471.97;;;17.64;62.30
4143;BME280;2085;51.052;6.958;2022-09-09T05:41:07;100463.25;;;17.62;62.33
4143;BME280;2085;51.052;6.958;2022-09-09T05:43:34;100474.00;;;17.61;62.53
4143;BME280;2085;51.052;6.958;2022-09-09T05:46:04;100466.25;;;17.58;62.47
4143;BME280;2085;51.052;6.958;2022-09-09T05:48:32;100476.91;;;17.58;62.48
4143;BME280;2085;51.052;6.958;2022-09-09T05:50:59;100478.03;;;17.55;62.66
4143;BME280;2085;51.052;6.958;2022-09-09T05:53:28;100484.19;;;17.56;62.72
4143;BME280;2085;51.052;6.958;2022-09-09T05:56:01;100484.03;;;17.57;62.64
4143;BME280;2085;51.052;6.958;2022-09-09T05:58:29;100484.81;;;17.59;62.79
4143;BME280;2085;51.052;6.958;2022-09-09T06:01:04;100482.00;;;17.61;62.66
4143;BME280;2085;51.052;6.958;2022-09-09T06:03:30;100481.03;;;17.62;62.77
4143;BME280;2085;51.052;6.958;2022-09-09T06:05:58;100482.63;;;17.64;62.56
4143;BME280;2085;51.052;6.958;2022-09-09T06:08:25;100476.44;;;17.64;62.59
4143;BME280;2085;51.052;6.958;2022-09-09T06:10:53;100469.16;;;17.66;62.60
4143;BME280;2085;51.052;6.958;2022-09-09T06:13:19;100476.91;;;17.69;62.65
4143;BME280;2085;51.052;6.958;2022-09-09T06:15:49;100472.16;;;17.72;62.45
4143;BME280;2085;51.052;6.958;2022-09-09T06:18:17;100475.41;;;17.76;62.61
4143;BME280;2085;51.052;6.958;2022-09-09T06:20:53;100477.69;;;17.80;62.64
4143;BME280;2085;51.052;6.958;2022-09-09T06:23:20;100479.28;;;17.83;62.54
4143;BME280;2085;51.052;6.958;2022-09-09T06:25:46;100478.28;;;17.84;62.28
4143;BME280;2085;51.052;6.958;2022-09-09T06:28:15;100483.22;;;17.89;62.53
4143;BME280;2085;51.052;6.958;2022-09-09T06:30:42;100489.84;;;17.94;62.59
4143;BME280;2085;51.052;6.958;2022-09-09T06:33:09;100481.47;;;17.99;62.48
4143;BME280;2085;51.052;6.958;2022-09-09T06:35:36;100483.47;;;18.06;62.33
4143;BME280;2085;51.052;6.958;2022-09-09T06:38:02;100482.97;;;18.12;62.34
4143;BME280;2085;51.052;6.958;2022-09-09T06:40:30;100478.09;;;18.17;62.19
4143;BME280;2085;51.052;6.958;2022-09-09T06:42:59;100484.84;;;18.21;62.06
4143;BME280;2085;51.052;6.958;2022-09-09T06:45:27;100480.47;;;18.20;62.02
4143;BME280;2085;51.052;6.958;2022-09-09T06:47:54;100481.84;;;18.15;61.96
4143;BME280;2085;51.052;6.958;2022-09-09T06:50:21;100484.50;;;18.15;62.17
4143;BME280;2085;51.052;6.958;2022-09-09T06:52:48;100486.53;;;18.22;62.33
4143;BME280;2085;51.052;6.958;2022-09-09T06:55:14;100478.47;;;18.34;62.52
4143;BME280;2085;51.052;6.958;2022-09-09T06:57:43;100483.31;;;18.49;62.29
4143;BME280;2085;51.052;6.958;2022-09-09T07:00:10;100482.41;;;18.60;62.12
4143;BME280;2085;51.052;6.958;2022-09-09T07:02:40;100480.78;;;18.68;62.27
4143;BME280;2085;51.052;6.958;2022-09-09T07:05:07;100475.22;;;18.81;62.33
4143;BME280;2085;51.052;6.958;2022-09-09T07:07:34;100475.53;;;18.97;62.01
4143;BME280;2085;51.052;6.958;2022-09-09T07:10:02;100478.69;;;19.12;61.86
4143;BME280;2085;51.052;6.958;2022-09-09T07:12:29;100472.97;;;19.26;61.87
4143;BME280;2085;51.052;6.958;2022-09-09T07:14:55;100476.63;;;19.35;61.51
4143;BME280;2085;51.052;6.958;2022-09-09T07:17:22;100472.56;;;19.40;61.56
4143;BME280;2085;51.052;6.958;2022-09-09T07:19:50;100485.22;;;19.48;61.39
4143;BME280;2085;51.052;6.958;2022-09-09T07:22:17;100483.00;;;19.53;61.74
4143;BME280;2085;51.052;6.958;2022-09-09T07:24:45;100477.66;;;19.53;61.80
4143;BME280;2085;51.052;6.958;2022-09-09T07:27:12;100474.00;;;19.54;61.71
4143;BME280;2085;51.052;6.958;2022-09-09T07:29:38;100489.88;;;19.55;61.31
4143;BME280;2085;51.052;6.958;2022-09-09T07:32:05;100486.34;;;19.55;61.41
4143;BME280;2085;51.052;6.958;2022-09-09T07:34:32;100495.38;;;19.54;61.73
4143;BME280;2085;51.052;6.958;2022-09-09T07:37:00;100493.38;;;19.56;61.76
4143;BME280;2085;51.052;6.958;2022-09-09T07:39:26;100498.19;;;19.62;61.87
4143;BME280;2085;51.052;6.958;2022-09-09T07:41:53;100495.53;;;19.72;61.46
4143;BME280;2085;51.052;6.958;2022-09-09T07:44:21;100500.16;;;19.79;61.31
4143;BME280;2085;51.052;6.958;2022-09-09T07:46:50;100506.88;;;19.83;61.58
4143;BME280;2085;51.052;6.958;2022-09-09T07:49:16;100504.94;;;19.85;61.31
4143;BME280;2085;51.052;6.958;2022-09-09T07:51:45;100508.00;;;19.90;61.59
4143;BME280;2085;51.052;6.958;2022-09-09T07:54:15;100513.94;;;20.03;61.29
4143;BME280;2085;51.052;6.958;2022-09-09T07:56:45;100504.06;;;20.14;61.36
4143;BME280;2085;51.052;6.958;2022-09-09T07:59:12;100508.84;;;20.20;61.02
4143;BME280;2085;51.052;6.958;2022-09-09T08:01:41;100507.00;;;20.20;61.04
4143;BME280;2085;51.052;6.958;2022-09-09T08:04:10;100504.75;;;20.16;61.04
4143;BME280;2085;51.052;6.958;2022-09-09T08:06:42;100511.66;;;20.09;61.31
4143;BME280;2085;51.052;6.958;2022-09-09T08:09:09;100506.88;;;20.02;60.95
4143;BME280;2085;51.052;6.958;2022-09-09T08:11:38;100516.44;;;19.95;61.24
4143;BME280;2085;51.052;6.958;2022-09-09T08:14:05;100511.38;;;19.83;61.25
4143;BME280;2085;51.052;6.958;2022-09-09T08:16:34;100512.94;;;19.76;61.18
4143;BME280;2085;51.052;6.958;2022-09-09T08:19:02;100509.00;;;19.70;61.36
4143;BME280;2085;51.052;6.958;2022-09-09T08:21:31;100514.34;;;19.70;61.52
4143;BME280;2085;51.052;6.958;2022-09-09T08:23:59;100510.13;;;19.77;61.36
4143;BME280;2085;51.052;6.958;2022-09-09T08:26:28;100506.34;;;19.89;61.34
4143;BME280;2085;51.052;6.958;2022-09-09T08:28:58;100507.44;;;19.96;60.84
4143;BME280;2085;51.052;6.958;2022-09-09T08:31:26;100503.94;;;19.96;60.87
4143;BME280;2085;51.052;6.958;2022-09-09T08:33:53;100506.03;;;19.92;60.88
4143;BME280;2085;51.052;6.958;2022-09-09T08:36:21;100506.88;;;19.83;60.75
4143;BME280;2085;51.052;6.958;2022-09-09T08:38:49;100518.13;;;19.77;60.96
4143;BME280;2085;51.052;6.958;2022-09-09T08:41:36;100513.38;;;19.81;61.00
4143;BME280;2085;51.052;6.958;2022-09-09T08:44:07;100508.59;;;19.94;60.95
4143;BME280;2085;51.052;6.958;2022-09-09T08:46:44;100507.88;;;20.11;60.93
4143;BME280;2085;51.052;6.958;2022-09-09T08:49:37;100513.06;;;20.32;60.72
4143;BME280;2085;51.052;6.958;2022-09-09T08:52:12;100518.94;;;20.45;60.50
4143;BME280;2085;51.052;6.958;2022-09-09T08:54:41;100510.78;;;20.46;60.32
4143;BME280;2085;51.052;6.958;2022-09-09T08:57:13;100518.94;;;20.45;60.51
4143;BME280;2085;51.052;6.958;2022-09-09T08:59:42;100520.31;;;20.49;60.47
4143;BME280;2085;51.052;6.958;2022-09-09T09:02:15;100520.31;;;20.49;60.18
4143;BME280;2085;51.052;6.958;2022-09-09T09:04:58;100526.09;;;20.54;60.40
4143;BME280;2085;51.052;6.958;2022-09-09T09:07:35;100521.88;;;20.61;60.03
4143;BME280;2085;51.052;6.958;2022-09-09T09:10:11;100526.78;;;20.66;60.23
4143;BME280;2085;51.052;6.958;2022-09-09T09:12:43;100528.16;;;20.70;60.01
4143;BME280;2085;51.052;6.958;2022-09-09T09:15:17;100528.72;;;20.73;60.18
4143;BME280;2085;51.052;6.958;2022-09-09T09:17:44;100527.44;;;20.77;60.17
4143;BME280;2085;51.052;6.958;2022-09-09T09:20:12;100521.19;;;20.86;59.80
4143;BME280;2085;51.052;6.958;2022-09-09T09:22:46;100515.81;;;20.96;59.92
4143;BME280;2085;51.052;6.958;2022-09-09T09:25:17;100530.72;;;20.99;59.47
4143;BME280;2085;51.052;6.958;2022-09-09T09:27:49;100526.38;;;20.98;59.58
4143;BME280;2085;51.052;6.958;2022-09-09T09:30:23;100519.91;;;20.90;59.53
4143;BME280;2085;51.052;6.958;2022-09-09T09:32:53;100528.25;;;20.87;59.50
4143;BME280;2085;51.052;6.958;2022-09-09T09:35:20;100526.00;;;20.83;59.50
4143;BME280;2085;51.052;6.958;2022-09-09T09:37:47;100528.81;;;20.81;59.37
4143;BME280;2085;51.052;6.958;2022-09-09T09:40:16;100531.22;;;20.84;59.67
4143;BME280;2085;51.052;6.958;2022-09-09T09:42:51;100522.19;;;20.85;59.34
4143;BME280;2085;51.052;6.958;2022-09-09T09:45:28;100527.25;;;20.88;59.63
4143;BME280;2085;51.052;6.958;2022-09-09T09:48:03;100529.63;;;20.91;59.54
4143;BME280;2085;51.052;6.958;2022-09-09T09:50:31;100531.16;;;20.94;59.09
4143;BME280;2085;51.052;6.958;2022-09-09T09:53:00;100534.84;;;20.93;59.43
4143;BME280;2085;51.052;6.958;2022-09-09T09:55:30;100527.66;;;20.93;59.18
4143;BME280;2085;51.052;6.958;2022-09-09T09:58:02;100535.38;;;20.97;59.20
4143;BME280;2085;51.052;6.958;2022-09-09T10:00:31;100533.38;;;20.99;59.19
4143;BME280;2085;51.052;6.958;2022-09-09T10:03:00;100534.81;;;21.03;59.01
4143;BME280;2085;51.052;6.958;2022-09-09T10:05:29;100537.84;;;21.08;59.40
4143;BME280;2085;51.052;6.958;2022-09-09T10:08:04;100527.69;;;21.21;59.10
4143;BME280;2085;51.052;6.958;2022-09-09T10:10:42;100525.88;;;21.39;59.01
4143;BME280;2085;51.052;6.958;2022-09-09T10:13:15;100528.75;;;21.55;58.84
4143;BME280;2085;51.052;6.958;2022-09-09T10:15:56;100526.53;;;21.68;58.67
4143;BME280;2085;51.052;6.958;2022-09-09T10:18:36;100517.19;;;21.72;58.83
4143;BME280;2085;51.052;6.958;2022-09-09T10:21:14;100520.88;;;21.71;58.70
4143;BME280;2085;51.052;6.958;2022-09-09T10:23:58;100522.56;;;21.72;58.81
4143;BME280;2085;51.052;6.958;2022-09-09T10:26:37;100525.16;;;21.82;58.71
4143;BME280;2085;51.052;6.958;2022-09-09T10:29:23;100526.41;;;21.88;58.52
4143;BME280;2085;51.052;6.958;2022-09-09T10:32:02;100518.78;;;21.93;58.26
4143;BME280;2085;51.052;6.958;2022-09-09T10:34:47;100520.16;;;21.97;58.43
4143;BME280;2085;51.052;6.958;2022-09-09T10:37:30;100508.25;;;21.99;58.13
4143;BME280;2085;51.052;6.958;2022-09-09T10:40:12;100524.50;;;21.98;58.07
4143;BME280;2085;51.052;6.958;2022-09-09T10:42:42;100514.78;;;21.97;58.23
4143;BME280;2085;51.052;6.958;2022-09-09T10:45:17;100514.16;;;22.03;58.17
4143;BME280;2085;51.052;6.958;2022-09-09T10:48:16;100505.34;;;22.10;58.02
4143;BME280;2085;51.052;6.958;2022-09-09T10:50:50;100517.97;;;22.18;57.99
4143;BME280;2085;51.052;6.958;2022-09-09T10:53:24;100519.34;;;22.22;57.76
4143;BME280;2085;51.052;6.958;2022-09-09T10:55:57;100510.59;;;22.20;57.54
4143;BME280;2085;51.052;6.958;2022-09-09T10:58:29;100513.59;;;22.17;57.55
4143;BME280;2085;51.052;6.958;2022-09-09T11:01:01;100508.06;;;22.36;58.22
4143;BME280;2085;51.052;6.958;2022-09-09T11:03:38;100503.38;;;22.64;57.43
4143;BME280;2085;51.052;6.958;2022-09-09T11:06:11;100498.53;;;22.67;57.61
4143;BME280;2085;51.052;6.958;2022-09-09T11:08:39;100491.28;;;22.60;57.55
4143;BME280;2085;51.052;6.958;2022-09-09T11:11:10;100500.47;;;22.57;57.57
4143;BME280;2085;51.052;6.958;2022-09-09T11:13:45;100492.09;;;22.60;57.45
4143;BME280;2085;51.052;6.958;2022-09-09T11:16:24;100497.16;;;22.63;57.25
4143;BME280;2085;51.052;6.958;2022-09-09T11:18:57;100500.66;;;22.56;56.91
4143;BME280;2085;51.052;6.958;2022-09-09T11:21:29;100499.38;;;22.42;57.40
4143;BME280;2085;51.052;6.958;2022-09-09T11:24:00;100495.78;;;22.34;57.38
4143;BME280;2085;51.052;6.958;2022-09-09T11:26:32;100490.38;;;22.25;57.44
4143;BME280;2085;51.052;6.958;2022-09-09T11:29:19;100507.84;;;22.12;57.11
4143;BME280;2085;51.052;6.958;2022-09-09T11:32:00;100503.66;;;21.92;57.21
4143;BME280;2085;51.052;6.958;2022-09-09T11:34:38;100502.34;;;21.78;57.11
4143;BME280;2085;51.052;6.958;2022-09-09T11:37:38;100497.53;;;21.64;57.31
4143;BME280;2085;51.052;6.958;2022-09-09T11:40:14;100502.09;;;21.54;57.67
4143;BME280;2085;51.052;6.958;2022-09-09T11:42:43;100497.38;;;21.48;57.36
4143;BME280;2085;51.052;6.958;2022-09-09T11:45:15;100501.25;;;21.53;57.70
4143;BME280;2085;51.052;6.958;2022-09-09T11:47:51;100498.53;;;21.63;57.64
4143;BME280;2085;51.052;6.958;2022-09-09T11:50:31;100498.00;;;21.77;57.47
4143;BME280;2085;51.052;6.958;2022-09-09T11:53:20;100499.00;;;21.94;57.35
4143;BME280;2085;51.052;6.958;2022-09-09T11:55:59;100501.44;;;22.05;57.36
4143;BME280;2085;51.052;6.958;2022-09-09T11:58:27;100497.59;;;22.07;57.14
4143;BME280;2085;51.052;6.958;2022-09-09T12:00:57;100503.06;;;21.98;56.73
4143;BME280;2085;51.052;6.958;2022-09-09T12:03:38;100500.53;;;21.78;56.90
4143;BME280;2085;51.052;6.958;2022-09-09T12:06:15;100507.94;;;21.67;57.23
4143;BME280;2085;51.052;6.958;2022-09-09T12:08:47;100498.06;;;21.67;57.37
4143;BME280;2085;51.052;6.958;2022-09-09T12:11:25;100493.41;;;21.69;57.28
4143;BME280;2085;51.052;6.958;2022-09-09T12:13:53;100492.84;;;21.66;56.70
4143;BME280;2085;51.052;6.958;2022-09-09T12:16:31;100495.44;;;21.58;56.63
4143;BME280;2085;51.052;6.958;2022-09-09T12:19:04;100495.53;;;21.48;56.56
4143;BME280;2085;51.052;6.958;2022-09-09T12:21:38;100497.44;;;21.38;56.63
4143;BME280;2085;51.052;6.958;2022-09-09T12:24:11;100497.31;;;21.30;56.91
4143;BME280;2085;51.052;6.958;2022-09-09T12:26:41;100495.56;;;21.21;56.81
4143;BME280;2085;51.052;6.958;2022-09-09T12:29:18;100499.84;;;21.14;57.05
4143;BME280;2085;51.052;6.958;2022-09-09T12:31:54;100493.19;;;21.08;56.84
4143;BME280;2085;51.052;6.958;2022-09-09T12:34:32;100494.34;;;21.06;57.20
4143;BME280;2085;51.052;6.958;2022-09-09T12:37:06;100489.41;;;21.11;56.80
4143;BME280;2085;51.052;6.958;2022-09-09T12:39:38;100485.09;;;21.27;56.88
4143;BME280;2085;51.052;6.958;2022-09-09T12:42:17;100485.66;;;21.49;56.85
4143;BME280;2085;51.052;6.958;2022-09-09T12:44:51;100487.34;;;21.67;56.49
4143;BME280;2085;51.052;6.958;2022-09-09T12:47:18;100489.50;;;21.81;56.19
4143;BME280;2085;51.052;6.958;2022-09-09T12:49:47;100482.16;;;21.84;56.14
4143;BME280;2085;51.052;6.958;2022-09-09T12:52:23;100491.78;;;21.76;55.91
4143;BME280;2085;51.052;6.958;2022-09-09T12:54:52;100497.28;;;21.57;56.36
4143;BME280;2085;51.052;6.958;2022-09-09T12:57:20;100510.50;;;21.23;55.67
4143;BME280;2085;51.052;6.958;2022-09-09T12:59:49;100529.59;;;20.64;56.20
4143;BME280;2085;51.052;6.958;2022-09-09T13:02:19;100521.53;;;20.08;57.14
4143;BME280;2085;51.052;6.958;2022-09-09T13:04:46;100518.28;;;19.76;57.73
4143;BME280;2085;51.052;6.958;2022-09-09T13:07:17;100510.25;;;19.66;57.82
4143;BME280;2085;51.052;6.958;2022-09-09T13:09:46;100506.88;;;19.74;58.26
4143;BME280;2085;51.052;6.958;2022-09-09T13:12:14;100498.44;;;19.78;58.50
4143;BME280;2085;51.052;6.958;2022-09-09T13:14:44;100492.81;;;19.81;58.41
4143;BME280;2085;51.052;6.958;2022-09-09T13:17:20;100488.06;;;19.94;58.70
4143;BME280;2085;51.052;6.958;2022-09-09T13:19:48;100487.22;;;20.03;58.43
4143;BME280;2085;51.052;6.958;2022-09-09T13:22:24;100491.09;;;20.19;58.52
4143;BME280;2085;51.052;6.958;2022-09-09T13:25:00;100485.34;;;20.33;58.44
4143;BME280;2085;51.052;6.958;2022-09-09T13:27:30;100485.47;;;20.31;58.56
4143;BME280;2085;51.052;6.958;2022-09-09T13:29:57;100477.63;;;20.30;58.73
4143;BME280;2085;51.052;6.958;2022-09-09T13:32:25;100487.31;;;20.31;58.53